createdAt,value
2024-01-16T00:00:15.511Z,100020.13
2024-01-16T00:02:37.448Z,100026.13
2024-01-16T00:04:59.703Z,100032.03
2024-01-16T00:07:21.791Z,100031.16
2024-01-16T00:09:43.700Z,100036.34
2024-01-16T00:12:06.217Z,100039.94
2024-01-16T00:14:28.804Z,100040.00
2024-01-16T00:16:50.712Z,100029.91
2024-01-16T00:19:13.473Z,100038.91
2024-01-16T00:21:43.136Z,100034.78
2024-01-16T00:24:05.373Z,100035.63
2024-01-16T00:26:27.343Z,100046.84
2024-01-16T00:28:49.330Z,100039.31
2024-01-16T00:31:11.223Z,100044.47
2024-01-16T00:33:33.184Z,100044.53
2024-01-16T00:35:55.128Z,100047.88
2024-01-16T00:38:17.126Z,100047.09
2024-01-16T00:40:39.043Z,100048.69
2024-01-16T00:43:00.944Z,100047.88
2024-01-16T00:45:23.348Z,100045.31
2024-01-16T00:47:45.538Z,100046.97
2024-01-16T00:50:07.976Z,100044.97
2024-01-16T00:52:30.050Z,100050.81
2024-01-16T00:54:51.887Z,100053.44
2024-01-16T00:57:14.941Z,100054.38
2024-01-16T00:59:37.927Z,100051.78
2024-01-16T01:01:59.955Z,100050.81
2024-01-16T01:04:21.861Z,100061.03
2024-01-16T01:06:43.810Z,100059.44
2024-01-16T01:09:05.696Z,100061.94
2024-01-16T01:11:27.586Z,100068.84
2024-01-16T01:13:49.534Z,100071.56
2024-01-16T01:16:11.676Z,100069.81
2024-01-16T01:18:33.621Z,100079.13
2024-01-16T01:20:55.692Z,100080.06
2024-01-16T01:23:17.668Z,100085.28
2024-01-16T01:25:39.666Z,100085.28
2024-01-16T01:28:01.592Z,100092.88
2024-01-16T01:30:23.482Z,100092.09
2024-01-16T01:32:45.522Z,100094.69
2024-01-16T01:35:08.119Z,100098.09
2024-01-16T01:37:30.082Z,100092.91
2024-01-16T01:39:53.787Z,100103.59
2024-01-16T01:42:17.028Z,100103.06
2024-01-16T01:44:38.963Z,100098.94
2024-01-16T01:47:01.149Z,100090.56
2024-01-16T01:49:24.039Z,100082.09
2024-01-16T01:51:46.039Z,100088.19
2024-01-16T01:54:08.240Z,100088.19
2024-01-16T01:56:30.239Z,100093.50
2024-01-16T01:59:02.730Z,100094.22
2024-01-16T02:01:26.954Z,100098.44
2024-01-16T02:03:51.446Z,100106.09
2024-01-16T02:06:14.820Z,100099.28
2024-01-16T02:08:36.873Z,100103.41
2024-01-16T02:10:58.784Z,100120.31
2024-01-16T02:13:24.382Z,100108.13
2024-01-16T02:15:46.406Z,100114.69
2024-01-16T02:18:08.771Z,100113.50
2024-01-16T02:20:30.744Z,100109.06
2024-01-16T02:22:55.989Z,100116.59
2024-01-16T02:25:18.190Z,100112.19
2024-01-16T02:27:40.073Z,100112.06
2024-01-16T02:30:02.026Z,100108.72
2024-01-16T02:32:23.944Z,100114.63
2024-01-16T02:34:45.835Z,100111.22
2024-01-16T02:37:07.793Z,100105.31
2024-01-16T02:39:29.639Z,100102.88
2024-01-16T02:41:51.983Z,100107.25
2024-01-16T02:44:13.959Z,100104.72
2024-01-16T02:46:35.844Z,100106.50
2024-01-16T02:48:57.733Z,100109.84
2024-01-16T02:51:19.674Z,100111.66
2024-01-16T02:53:41.736Z,100106.34
2024-01-16T02:56:03.973Z,100101.09
2024-01-16T02:58:30.238Z,100104.44
2024-01-16T03:00:52.117Z,100101.78
2024-01-16T03:03:15.957Z,100104.44
2024-01-16T03:05:37.998Z,100103.72
2024-01-16T03:08:00.151Z,100102.03
2024-01-16T03:10:22.506Z,100107.06
2024-01-16T03:12:44.428Z,100109.66
2024-01-16T03:15:06.937Z,100108.13
2024-01-16T03:17:28.897Z,100117.69
2024-01-16T03:19:50.842Z,100111.81
2024-01-16T03:22:12.743Z,100110.16
2024-01-16T03:24:34.609Z,100114.09
2024-01-16T03:26:56.539Z,100110.66
2024-01-16T03:29:18.511Z,100110.66
2024-01-16T03:31:40.525Z,100115.88
2024-01-16T03:34:02.985Z,100110.75
2024-01-16T03:36:24.895Z,100109.81
2024-01-16T03:38:46.980Z,100110.50
2024-01-16T03:41:09.242Z,100112.13
2024-01-16T03:43:31.527Z,100109.50
2024-01-16T03:45:53.459Z,100108.84
2024-01-16T03:48:15.548Z,100107.25
2024-01-16T03:50:37.957Z,100108.97
2024-01-16T03:52:59.945Z,100108.13
2024-01-16T03:55:22.120Z,100113.06
2024-01-16T03:57:43.978Z,100111.34
2024-01-16T04:00:06.988Z,100108.72
2024-01-16T04:02:28.929Z,100112.91
2024-01-16T04:04:50.938Z,100108.63
2024-01-16T04:07:12.816Z,100115.41
2024-01-16T04:09:34.637Z,100112.66
2024-01-16T04:11:56.654Z,100115.19
2024-01-16T04:14:19.593Z,100117.84
2024-01-16T04:16:41.592Z,100113.81
2024-01-16T04:19:04.517Z,100111.25
2024-01-16T04:21:26.881Z,100119.94
2024-01-16T04:23:48.915Z,100114.03
2024-01-16T04:26:10.931Z,100107.34
2024-01-16T04:28:32.922Z,100115.03
2024-01-16T04:30:54.997Z,100113.41
2024-01-16T04:33:17.085Z,100111.84
2024-01-16T04:35:39.144Z,100107.50
2024-01-16T04:38:01.102Z,100109.31
2024-01-16T04:40:23.121Z,100111.00
2024-01-16T04:42:45.267Z,100108.53
2024-01-16T04:45:07.858Z,100102.84
2024-01-16T04:47:29.871Z,100101.91
2024-01-16T04:49:51.818Z,100109.84
2024-01-16T04:52:13.713Z,100104.88
2024-01-16T04:54:35.561Z,100109.66
2024-01-16T04:56:57.435Z,100100.59
2024-01-16T04:59:19.391Z,100101.66
2024-01-16T05:01:41.329Z,100104.16
2024-01-16T05:04:04.788Z,100094.06
2024-01-16T05:06:26.840Z,100086.44
2024-01-16T05:08:49.700Z,100083.94
2024-01-16T05:11:12.283Z,100075.56
2024-01-16T05:13:34.162Z,100070.56
2024-01-16T05:15:56.148Z,100073.28
2024-01-16T05:18:18.233Z,100065.88
2024-01-16T05:20:40.653Z,100066.84
2024-01-16T05:23:02.641Z,100062.53
2024-01-16T05:25:24.657Z,100059.16
2024-01-16T05:27:46.532Z,100055.19
2024-01-16T05:30:09.392Z,100053.50
2024-01-16T05:32:31.533Z,100052.41
2024-01-16T05:34:53.881Z,100049.84
2024-01-16T05:37:15.799Z,100049.00
2024-01-16T05:39:37.803Z,100050.72
2024-01-16T05:42:00.351Z,100054.19
2024-01-16T05:44:22.253Z,100056.97
2024-01-16T05:46:44.446Z,100051.03
2024-01-16T05:49:06.441Z,100053.50
2024-01-16T05:51:30.662Z,100054.41
2024-01-16T05:53:53.250Z,100052.66
2024-01-16T05:56:15.294Z,100057.00
2024-01-16T05:58:39.913Z,100060.47
2024-01-16T06:01:01.859Z,100061.34
2024-01-16T06:03:23.736Z,100062.44
2024-01-16T06:05:45.704Z,100066.00
2024-01-16T06:08:07.751Z,100064.41
2024-01-16T06:10:29.665Z,100056.66
2024-01-16T06:12:51.581Z,100058.38
2024-01-16T06:15:13.507Z,100064.41
2024-01-16T06:17:35.868Z,100061.72
2024-01-16T06:19:57.936Z,100071.19
2024-01-16T06:22:19.833Z,100070.41
2024-01-16T06:24:41.725Z,100077.31
2024-01-16T06:27:07.986Z,100077.31
2024-01-16T06:29:34.979Z,100061.94
2024-01-16T06:31:57.699Z,100066.13
2024-01-16T06:34:19.669Z,100068.56
2024-01-16T06:36:41.653Z,100062.50
2024-01-16T06:39:04.464Z,100054.81
2024-01-16T06:41:26.384Z,100056.50
2024-01-16T06:43:48.398Z,100053.88
2024-01-16T06:46:10.779Z,100060.69
2024-01-16T06:48:32.821Z,100046.03
2024-01-16T06:50:54.853Z,100053.66
2024-01-16T06:53:17.474Z,100051.84
2024-01-16T06:55:39.754Z,100057.13
2024-01-16T06:58:01.651Z,100057.84
2024-01-16T07:00:23.876Z,100058.69
2024-01-16T07:02:45.996Z,100056.38
2024-01-16T07:05:08.498Z,100062.19
2024-01-16T07:07:31.377Z,100057.06
2024-01-16T07:09:53.342Z,100057.06
2024-01-16T07:12:15.223Z,100059.63
2024-01-16T07:14:39.125Z,100058.00
2024-01-16T07:17:01.178Z,100062.34
2024-01-16T07:19:23.101Z,100057.94
2024-01-16T07:21:45.839Z,100058.69
2024-01-16T07:24:08.092Z,100065.63
2024-01-16T07:26:31.109Z,100064.66
2024-01-16T07:28:53.055Z,100062.97
2024-01-16T07:31:17.483Z,100061.28
2024-01-16T07:33:39.511Z,100059.41
2024-01-16T07:36:01.924Z,100055.28
2024-01-16T07:38:23.902Z,100060.34
2024-01-16T07:40:45.851Z,100064.66
2024-01-16T07:43:07.784Z,100061.09
2024-01-16T07:45:29.651Z,100062.91
2024-01-16T07:47:51.682Z,100065.16
2024-01-16T07:50:13.671Z,100067.66
2024-01-16T07:52:35.657Z,100067.66
2024-01-16T07:54:57.573Z,100069.34
2024-01-16T07:57:19.959Z,100070.06
2024-01-16T07:59:44.487Z,100071.66
2024-01-16T08:02:06.420Z,100078.13
2024-01-16T08:04:28.327Z,100078.69
2024-01-16T08:06:50.366Z,100073.34
2024-01-16T08:09:13.502Z,100069.88
2024-01-16T08:11:37.773Z,100068.84
2024-01-16T08:13:59.726Z,100080.53
2024-01-16T08:16:21.932Z,100080.34
2024-01-16T08:18:43.958Z,100081.13
2024-01-16T08:21:06.962Z,100090.28
2024-01-16T08:23:28.908Z,100088.38
2024-01-16T08:25:52.669Z,100086.78
2024-01-16T08:28:15.173Z,100087.00
2024-01-16T08:30:37.833Z,100091.13
2024-01-16T08:32:59.880Z,100087.56
2024-01-16T08:35:21.861Z,100096.72
2024-01-16T08:37:43.797Z,100101.56
2024-01-16T08:40:06.943Z,100109.88
2024-01-16T08:42:28.784Z,100114.09
2024-01-16T08:44:50.788Z,100121.50
2024-01-16T08:47:12.720Z,100119.56
2024-01-16T08:49:34.733Z,100127.94
2024-01-16T08:51:56.709Z,100127.53
2024-01-16T08:54:18.668Z,100132.91
2024-01-16T08:56:40.579Z,100131.66
2024-01-16T08:59:02.678Z,100122.56
2024-01-16T09:01:24.644Z,100127.03
2024-01-16T09:03:47.418Z,100128.44
2024-01-16T09:06:09.937Z,100135.72
2024-01-16T09:08:33.018Z,100133.84
2024-01-16T09:10:55.730Z,100137.19
2024-01-16T09:13:17.592Z,100145.59
2024-01-16T09:15:39.559Z,100136.63
2024-01-16T09:18:01.594Z,100135.06
2024-01-16T09:20:24.770Z,100134.94
2024-01-16T09:22:46.968Z,100145.22
2024-01-16T09:25:08.973Z,100143.47
2024-01-16T09:27:30.803Z,100144.50
2024-01-16T09:29:53.128Z,100140.34
2024-01-16T09:32:15.034Z,100137.22
2024-01-16T09:34:36.976Z,100138.50
2024-01-16T09:37:02.003Z,100134.13
2024-01-16T09:39:24.165Z,100134.03
2024-01-16T09:41:46.346Z,100131.38
2024-01-16T09:44:08.513Z,100117.78
2024-01-16T09:46:32.631Z,100123.88
2024-01-16T09:48:57.559Z,100123.59
2024-01-16T09:51:19.555Z,100118.63
2024-01-16T09:53:44.645Z,100123.50
2024-01-16T09:56:15.448Z,100121.78
2024-01-16T09:58:38.535Z,100126.28
2024-01-16T10:01:00.903Z,100127.59
2024-01-16T10:03:23.285Z,100131.28
2024-01-16T10:05:46.900Z,100128.06
2024-01-16T10:08:09.132Z,100132.94
2024-01-16T10:10:39.053Z,100128.47
2024-01-16T10:13:08.751Z,100124.94
2024-01-16T10:15:31.562Z,100126.66
2024-01-16T10:17:53.874Z,100123.63
2024-01-16T10:20:18.368Z,100126.44
2024-01-16T10:22:41.676Z,100128.47
2024-01-16T10:25:08.701Z,100126.09
2024-01-16T10:27:32.236Z,100128.13
2024-01-16T10:29:59.044Z,100131.56
2024-01-16T10:32:38.716Z,100128.38
2024-01-16T10:35:05.629Z,100129.91
2024-01-16T10:37:27.980Z,100133.31
2024-01-16T10:39:51.974Z,100120.59
2024-01-16T10:42:16.565Z,100117.34
2024-01-16T10:44:39.335Z,100110.38
2024-01-16T10:47:23.026Z,100116.50
2024-01-16T10:52:13.552Z,100092.19
2024-01-16T10:54:38.433Z,100088.38
2024-01-16T10:57:00.632Z,100091.19
2024-01-16T10:59:47.818Z,100083.19
2024-01-16T11:02:14.158Z,100080.63
2024-01-16T11:04:38.679Z,100083.66
2024-01-16T11:07:01.737Z,100086.19
2024-01-16T11:09:23.641Z,100079.97
2024-01-16T11:11:47.162Z,100084.50
2024-01-16T11:14:09.523Z,100072.25
2024-01-16T11:16:35.624Z,100065.16
2024-01-16T11:19:13.468Z,100070.13
2024-01-16T11:21:40.930Z,100066.72
2024-01-16T11:24:03.054Z,100068.91
2024-01-16T11:26:33.472Z,100051.66
2024-01-16T11:29:00.173Z,100044.88
2024-01-16T11:31:33.986Z,100055.78
2024-01-16T11:33:56.038Z,100048.75
2024-01-16T11:36:48.330Z,100048.00
2024-01-16T11:39:12.952Z,100048.75
2024-01-16T11:41:54.052Z,100042.22
2024-01-16T11:44:49.328Z,100034.44
2024-01-16T11:47:21.940Z,100027.47
2024-01-16T11:49:44.059Z,100028.16
2024-01-16T11:52:06.321Z,100019.34
2024-01-16T11:54:28.289Z,100020.09
2024-01-16T11:57:06.792Z,100013.16
2024-01-16T12:00:01.359Z,100012.09
2024-01-16T12:02:38.403Z,100010.22
2024-01-16T12:05:04.829Z,100006.59
2024-01-16T12:07:26.773Z,100008.94
2024-01-16T12:09:49.132Z,100006.88
2024-01-16T12:12:11.085Z,99995.75
2024-01-16T12:14:33.138Z,99994.16
2024-01-16T12:17:11.907Z,99992.94
2024-01-16T12:19:33.974Z,99992.25
2024-01-16T12:21:55.996Z,99985.00
2024-01-16T12:24:18.978Z,99984.03
2024-01-16T12:26:42.572Z,99985.72
2024-01-16T12:29:04.769Z,99988.22
2024-01-16T12:31:28.400Z,99983.53
2024-01-16T12:33:57.961Z,99980.59
2024-01-16T12:36:24.776Z,99979.69
2024-01-16T12:38:56.584Z,99971.91
2024-01-16T12:41:26.479Z,99969.16
2024-01-16T12:44:01.000Z,99961.88
2024-01-16T12:46:29.374Z,99956.53
2024-01-16T12:49:00.188Z,99957.81
2024-01-16T12:51:25.464Z,99955.84
2024-01-16T12:53:47.634Z,99955.25
2024-01-16T12:56:11.008Z,99954.44
2024-01-16T12:58:37.276Z,99948.44
2024-01-16T13:01:34.286Z,99951.84
2024-01-16T13:04:05.244Z,99944.28
2024-01-16T13:06:27.227Z,99944.94
2024-01-16T13:09:16.241Z,99943.22
2024-01-16T13:11:53.499Z,99933.44
2024-01-16T13:14:15.860Z,99930.88
2024-01-16T13:16:37.769Z,99929.88
2024-01-16T13:19:05.278Z,99925.28
2024-01-16T13:21:27.219Z,99912.31
2024-01-16T13:23:49.119Z,99912.16
2024-01-16T13:26:11.067Z,99907.16
2024-01-16T13:28:32.942Z,99896.72
2024-01-16T13:30:54.938Z,99898.03
2024-01-16T13:33:17.523Z,99889.28
2024-01-16T13:35:44.367Z,99887.41
2024-01-16T13:38:09.913Z,99883.09
2024-01-16T13:40:32.480Z,99877.19
2024-01-16T13:42:54.373Z,99879.69
2024-01-16T13:45:17.792Z,99883.84
2024-01-16T13:47:41.776Z,99882.84
2024-01-16T13:50:04.687Z,99870.78
2024-01-16T13:52:28.630Z,99881.41
2024-01-16T13:54:51.284Z,99884.13
2024-01-16T13:57:14.296Z,99891.19
2024-01-16T13:59:37.438Z,99885.94
2024-01-16T14:01:59.723Z,99890.22
2024-01-16T14:04:21.907Z,99883.69
2024-01-16T14:07:01.796Z,99882.34
2024-01-16T14:09:25.786Z,99883.16
2024-01-16T14:11:47.781Z,99878.72
2024-01-16T14:14:12.339Z,99876.91
2024-01-16T14:16:47.940Z,99881.06
2024-01-16T14:19:13.631Z,99872.72
2024-01-16T14:21:36.083Z,99885.97
2024-01-16T14:23:57.990Z,99876.97
2024-01-16T14:26:19.952Z,99883.78
2024-01-16T14:28:41.841Z,99879.16
2024-01-16T14:31:03.915Z,99887.41
2024-01-16T14:33:25.995Z,99878.53
2024-01-16T14:35:47.967Z,99878.41
2024-01-16T14:38:09.835Z,99876.66
2024-01-16T14:40:32.435Z,99873.91
2024-01-16T14:42:57.398Z,99871.94
2024-01-16T14:45:19.368Z,99868.41
2024-01-16T14:47:41.814Z,99883.66
2024-01-16T14:50:04.900Z,99874.22
2024-01-16T14:52:26.940Z,99887.00
2024-01-16T14:54:49.026Z,99879.13
2024-01-16T14:57:12.441Z,99878.38
2024-01-16T14:59:34.490Z,99870.66
2024-01-16T15:01:56.386Z,99877.44
2024-01-16T15:04:18.815Z,99871.50
2024-01-16T15:06:41.159Z,99866.25
2024-01-16T15:09:03.412Z,99857.69
2024-01-16T15:11:28.957Z,99860.44
2024-01-16T15:13:51.139Z,99861.19
2024-01-16T15:16:13.246Z,99864.50
2024-01-16T15:18:35.328Z,99867.75
2024-01-16T15:20:57.781Z,99866.69
2024-01-16T15:23:19.767Z,99866.44
2024-01-16T15:25:41.718Z,99862.06
2024-01-16T15:28:04.383Z,99860.22
2024-01-16T15:30:32.627Z,99856.91
2024-01-16T15:32:54.920Z,99863.88
2024-01-16T15:35:17.087Z,99859.28
2024-01-16T15:37:38.975Z,99861.19
2024-01-16T15:40:00.889Z,99863.06
2024-01-16T15:42:23.079Z,99858.84
2024-01-16T15:44:45.119Z,99862.41
2024-01-16T15:47:07.034Z,99862.63
2024-01-16T15:49:32.157Z,99858.66
2024-01-16T15:51:54.618Z,99863.41
2024-01-16T15:54:16.694Z,99861.16
2024-01-16T15:56:38.628Z,99860.63
2024-01-16T15:59:00.481Z,99852.28
2024-01-16T16:01:23.081Z,99858.59
2024-01-16T16:03:45.956Z,99855.34
2024-01-16T16:06:09.991Z,99863.19
2024-01-16T16:08:32.013Z,99856.47
2024-01-16T16:10:53.962Z,99849.03
2024-01-16T16:13:18.515Z,99858.81
2024-01-16T16:15:43.530Z,99865.97
2024-01-16T16:18:05.833Z,99856.66
2024-01-16T16:20:27.875Z,99859.53
2024-01-16T16:22:51.872Z,99868.38
2024-01-16T16:25:13.833Z,99864.31
2024-01-16T16:27:35.734Z,99870.50
2024-01-16T16:29:59.202Z,99874.94
2024-01-16T16:32:21.386Z,99881.88
2024-01-16T16:34:46.762Z,99881.03
2024-01-16T16:37:08.692Z,99882.84
2024-01-16T16:39:30.568Z,99881.22
2024-01-16T16:41:52.632Z,99877.13
2024-01-16T16:44:14.989Z,99874.00
2024-01-16T16:46:37.397Z,99884.50
2024-01-16T16:49:00.158Z,99874.50
2024-01-16T16:51:24.489Z,99876.31
2024-01-16T16:53:47.028Z,99876.44
2024-01-16T16:56:12.915Z,99887.69
2024-01-16T16:58:34.880Z,99886.03
2024-01-16T17:00:56.820Z,99887.75
2024-01-16T17:03:18.725Z,99884.44
2024-01-16T17:05:40.912Z,99878.44
2024-01-16T17:08:03.021Z,99880.25
2024-01-16T17:10:24.925Z,99875.94
2024-01-16T17:12:47.569Z,99875.03
2024-01-16T17:15:09.747Z,99869.97
2024-01-16T17:17:33.822Z,99867.47
2024-01-16T17:19:55.765Z,99866.72
2024-01-16T17:22:17.782Z,99870.25
2024-01-16T17:24:39.800Z,99871.22
2024-01-16T17:27:01.861Z,99874.75
2024-01-16T17:29:23.897Z,99874.06
2024-01-16T17:31:45.791Z,99870.66
2024-01-16T17:34:07.895Z,99860.47
2024-01-16T17:36:30.261Z,99861.34
2024-01-16T17:38:57.164Z,99852.97
2024-01-16T17:41:21.600Z,99847.00
2024-01-16T17:43:43.803Z,99832.63
2024-01-16T17:46:06.463Z,99830.13
2024-01-16T17:48:29.082Z,99833.59
2024-01-16T17:50:51.455Z,99830.41
2024-01-16T17:53:13.616Z,99834.72
2024-01-16T17:55:35.792Z,99819.44
2024-01-16T17:58:01.277Z,99824.72
2024-01-16T18:00:23.750Z,99819.72
2024-01-16T18:02:48.076Z,99809.63
2024-01-16T18:05:17.392Z,99812.38
2024-01-16T18:07:46.848Z,99803.06
2024-01-16T18:10:10.216Z,99795.56
2024-01-16T18:12:33.125Z,99783.75
2024-01-16T18:14:55.428Z,99788.13
2024-01-16T18:17:19.556Z,99781.31
2024-01-16T18:19:41.749Z,99778.06
2024-01-16T18:22:06.871Z,99774.84
2024-01-16T18:24:29.185Z,99780.25
2024-01-16T18:26:51.205Z,99785.56
2024-01-16T18:29:13.368Z,99783.25
2024-01-16T18:31:35.290Z,99784.25
2024-01-16T18:33:57.416Z,99776.78
2024-01-16T18:36:21.017Z,99777.88
2024-01-16T18:38:46.572Z,99778.91
2024-01-16T18:41:08.603Z,99770.44
2024-01-16T18:43:30.538Z,99776.53
2024-01-16T18:45:52.911Z,99770.63
2024-01-16T18:48:15.700Z,99771.75
2024-01-16T18:50:38.666Z,99785.59
2024-01-16T18:53:00.588Z,99770.31
2024-01-16T18:55:22.504Z,99766.22
2024-01-16T18:57:45.671Z,99765.47
2024-01-16T19:00:16.714Z,99766.50
2024-01-16T19:02:38.657Z,99761.63
2024-01-16T19:05:00.706Z,99760.13
2024-01-16T19:07:24.553Z,99757.66
2024-01-16T19:09:46.455Z,99748.28
2024-01-16T19:12:08.592Z,99746.63
2024-01-16T19:14:30.537Z,99745.78
2024-01-16T19:16:52.484Z,99743.16
2024-01-16T19:19:18.110Z,99748.28
2024-01-16T19:21:40.003Z,99738.94
2024-01-16T19:24:02.016Z,99743.22
2024-01-16T19:26:24.733Z,99736.44
2024-01-16T19:28:46.610Z,99736.38
2024-01-16T19:31:08.540Z,99732.91
2024-01-16T19:33:30.641Z,99727.75
2024-01-16T19:35:52.687Z,99720.06
2024-01-16T19:38:14.779Z,99723.47
2024-01-16T19:40:36.750Z,99716.75
2024-01-16T19:43:05.831Z,99712.53
2024-01-16T19:45:27.691Z,99707.44
2024-01-16T19:47:50.315Z,99699.06
2024-01-16T19:50:23.002Z,99694.84
2024-01-16T19:52:52.662Z,99689.75
2024-01-16T19:55:16.263Z,99687.16
2024-01-16T19:57:38.176Z,99693.19
2024-01-16T20:00:02.586Z,99688.91
2024-01-16T20:02:25.426Z,99686.34
2024-01-16T20:04:47.533Z,99686.25
2024-01-16T20:07:09.532Z,99690.72
2024-01-16T20:09:31.439Z,99681.50
2024-01-16T20:11:53.553Z,99686.00
2024-01-16T20:14:16.691Z,99678.44
2024-01-16T20:16:39.885Z,99666.75
2024-01-16T20:19:01.948Z,99668.56
2024-01-16T20:21:27.185Z,99668.81
2024-01-16T20:23:50.691Z,99662.16
2024-01-16T20:26:13.308Z,99655.50
2024-01-16T20:28:35.180Z,99656.47
2024-01-16T20:30:57.338Z,99655.84
2024-01-16T20:33:19.591Z,99664.41
2024-01-16T20:35:41.675Z,99665.34
2024-01-16T20:38:03.761Z,99664.59
2024-01-16T20:40:25.660Z,99670.53
2024-01-16T20:42:47.526Z,99672.28
2024-01-16T20:45:13.687Z,99671.25
2024-01-16T20:47:35.893Z,99671.22
2024-01-16T20:49:58.028Z,99675.31
2024-01-16T20:52:22.639Z,99680.25
2024-01-16T20:54:44.602Z,99664.81
2024-01-16T20:57:07.016Z,99662.16
2024-01-16T20:59:28.956Z,99659.63
2024-01-16T21:01:51.615Z,99656.09
2024-01-16T21:04:14.542Z,99648.34
2024-01-16T21:06:37.677Z,99645.78
2024-01-16T21:08:59.774Z,99640.72
2024-01-16T21:11:22.647Z,99629.78
2024-01-16T21:13:44.780Z,99633.22
2024-01-16T21:16:07.601Z,99623.38
2024-01-16T21:18:32.676Z,99626.84
2024-01-16T21:20:56.417Z,99612.25
2024-01-16T21:23:18.509Z,99619.84
2024-01-16T21:25:40.582Z,99618.06
2024-01-16T21:28:02.615Z,99618.97
2024-01-16T21:30:27.679Z,99621.38
2024-01-16T21:32:49.826Z,99615.50
2024-01-16T21:35:13.069Z,99616.34
2024-01-16T21:37:34.937Z,99610.44
2024-01-16T21:39:56.822Z,99616.34
2024-01-16T21:42:18.691Z,99614.66
2024-01-16T21:44:40.658Z,99611.28
2024-01-16T21:47:02.766Z,99604.63
2024-01-16T21:49:24.785Z,99601.50
2024-01-16T21:51:46.893Z,99604.94
2024-01-16T21:54:08.847Z,99606.72
2024-01-16T21:56:30.797Z,99600.94
2024-01-16T21:58:52.665Z,99598.53
2024-01-16T22:01:14.817Z,99586.88
2024-01-16T22:03:37.927Z,99578.56
2024-01-16T22:06:00.061Z,99574.44
2024-01-16T22:08:22.089Z,99569.47
2024-01-16T22:10:44.001Z,99564.34
2024-01-16T22:13:05.886Z,99555.06
2024-01-16T22:15:27.771Z,99557.63
2024-01-16T22:17:49.751Z,99549.19
2024-01-16T22:20:11.879Z,99559.41
2024-01-16T22:22:33.824Z,99552.63
2024-01-16T22:24:55.781Z,99548.41
2024-01-16T22:27:20.439Z,99547.66
2024-01-16T22:29:46.528Z,99550.28
2024-01-16T22:32:08.765Z,99533.34
2024-01-16T22:34:30.701Z,99531.72
2024-01-16T22:36:52.801Z,99532.56
2024-01-16T22:39:18.696Z,99523.19
2024-01-16T22:41:48.943Z,99515.53
2024-01-16T22:44:11.777Z,99513.81
2024-01-16T22:46:33.681Z,99519.03
2024-01-16T22:48:55.877Z,99512.19
2024-01-16T22:51:17.871Z,99511.25
2024-01-16T22:53:39.836Z,99504.25
2024-01-16T22:56:01.772Z,99505.94
2024-01-16T22:58:23.862Z,99504.22
2024-01-16T23:00:52.897Z,99504.22
2024-01-16T23:03:14.930Z,99497.75
2024-01-16T23:05:37.597Z,99482.69
2024-01-16T23:07:59.968Z,99483.81
2024-01-16T23:10:21.916Z,99489.16
2024-01-16T23:12:44.242Z,99480.69
2024-01-16T23:15:06.823Z,99474.88
2024-01-16T23:17:30.733Z,99464.06
2024-01-16T23:19:52.626Z,99464.91
2024-01-16T23:22:14.972Z,99459.81
2024-01-16T23:24:38.078Z,99458.13
2024-01-16T23:27:00.177Z,99459.91
2024-01-16T23:29:22.152Z,99465.03
2024-01-16T23:31:44.055Z,99457.44
2024-01-16T23:34:09.055Z,99451.44
2024-01-16T23:36:31.274Z,99448.91
2024-01-16T23:38:55.610Z,99457.56
2024-01-16T23:41:19.178Z,99454.94
2024-01-16T23:43:43.373Z,99451.38
2024-01-16T23:46:08.506Z,99453.09
2024-01-16T23:48:30.510Z,99436.91
2024-01-16T23:50:52.594Z,99425.88
2024-01-16T23:53:14.472Z,99419.78
2024-01-16T23:55:36.417Z,99412.09
2024-01-16T23:57:59.029Z,99400.22
